createdAt,value
2019-06-01T00:00:11.023Z,16.77
2019-06-01T00:02:34.720Z,16.72
2019-06-01T00:05:06.790Z,16.66
2019-06-01T00:07:39.080Z,16.60
2019-06-01T00:10:11.759Z,16.59
2019-06-01T00:12:43.669Z,16.55
2019-06-01T00:15:15.730Z,16.52
2019-06-01T00:17:47.972Z,16.48
2019-06-01T00:20:21.274Z,16.45
2019-06-01T00:22:53.251Z,16.41
2019-06-01T00:25:25.544Z,16.36
2019-06-01T00:27:57.437Z,16.34
2019-06-01T00:30:29.684Z,16.33
2019-06-01T00:33:01.566Z,16.27
2019-06-01T00:35:33.609Z,16.25
2019-06-01T00:38:05.857Z,16.22
2019-06-01T00:40:38.669Z,16.20
2019-06-01T00:43:10.520Z,16.13
2019-06-01T00:45:44.386Z,16.02
2019-06-01T00:48:16.315Z,16.05
2019-06-01T00:50:49.135Z,16.01
2019-06-01T00:53:21.499Z,15.95
2019-06-01T00:55:53.693Z,15.88
2019-06-01T00:58:25.656Z,15.81
2019-06-01T01:00:57.520Z,15.77
2019-06-01T01:03:29.427Z,15.76
2019-06-01T01:06:01.481Z,15.74
2019-06-01T01:08:33.531Z,15.71
2019-06-01T01:11:05.917Z,15.72
2019-06-01T01:13:37.805Z,15.68
2019-06-01T01:16:09.693Z,15.63
2019-06-01T01:18:41.488Z,15.57
2019-06-01T01:21:13.550Z,15.51
2019-06-01T01:23:46.169Z,15.48
2019-06-01T01:26:18.406Z,15.47
2019-06-01T01:28:50.986Z,15.47
2019-06-01T01:31:22.948Z,15.48
2019-06-01T01:33:55.497Z,15.46
2019-06-01T01:36:27.908Z,15.43
2019-06-01T01:38:59.677Z,15.41
2019-06-01T01:41:31.570Z,15.38
2019-06-01T01:44:03.742Z,15.37
2019-06-01T01:46:35.861Z,15.36
2019-06-01T01:49:08.823Z,15.32
2019-06-01T01:51:40.749Z,15.29
2019-06-01T01:54:12.834Z,15.29
2019-06-01T01:56:44.947Z,15.28
2019-06-01T01:59:16.784Z,15.25
2019-06-01T02:01:48.732Z,15.20
2019-06-01T02:04:20.595Z,15.19
2019-06-01T02:06:52.405Z,15.19
2019-06-01T02:09:24.292Z,15.14
2019-06-01T02:11:57.585Z,15.12
2019-06-01T02:14:30.162Z,15.10
2019-06-01T02:17:02.535Z,15.06
2019-06-01T02:19:36.506Z,15.05
2019-06-01T02:22:08.990Z,15.04
2019-06-01T02:24:41.110Z,15.00
2019-06-01T02:27:12.915Z,14.99
2019-06-01T02:29:44.718Z,14.98
2019-06-01T02:32:16.547Z,14.94
2019-06-01T02:34:48.350Z,14.91
2019-06-01T02:37:20.098Z,14.92
2019-06-01T02:39:52.100Z,14.90
2019-06-01T02:42:23.895Z,14.89
2019-06-01T02:44:57.288Z,14.91
2019-06-01T02:47:29.285Z,14.87
2019-06-01T02:50:01.366Z,14.86
2019-06-01T02:52:34.800Z,14.84
2019-06-01T02:55:07.313Z,14.85
2019-06-01T02:57:39.434Z,14.87
2019-06-01T03:00:11.737Z,14.89
2019-06-01T03:02:45.018Z,14.91
2019-06-01T03:05:16.786Z,14.96
2019-06-01T03:07:52.725Z,15.01
2019-06-01T03:10:25.091Z,15.07
2019-06-01T03:13:02.088Z,15.13
2019-06-01T03:15:36.967Z,15.23
2019-06-01T03:18:11.865Z,15.33
2019-06-01T03:20:48.527Z,15.43
2019-06-01T03:23:23.449Z,15.50
2019-06-01T03:25:59.868Z,15.57
2019-06-01T03:28:37.213Z,15.64
2019-06-01T03:31:10.689Z,15.71
2019-06-01T03:33:42.681Z,15.80
2019-06-01T03:36:14.454Z,15.89
2019-06-01T03:38:47.013Z,15.99
2019-06-01T03:41:19.247Z,16.07
2019-06-01T03:43:51.162Z,16.14
2019-06-01T03:46:22.955Z,16.21
2019-06-01T03:48:55.293Z,16.30
2019-06-01T03:51:28.028Z,16.34
2019-06-01T03:54:00.899Z,16.41
2019-06-01T03:56:33.171Z,16.49
2019-06-01T03:59:05.139Z,16.59
2019-06-01T04:01:37.002Z,16.70
2019-06-01T04:04:11.264Z,16.80
2019-06-01T04:06:43.212Z,16.93
2019-06-01T04:09:14.987Z,17.05
2019-06-01T04:11:47.041Z,17.15
2019-06-01T04:14:18.934Z,17.21
2019-06-01T04:16:50.768Z,17.28
2019-06-01T04:19:22.851Z,17.32
2019-06-01T04:21:54.628Z,17.37
2019-06-01T04:24:28.716Z,17.26
2019-06-01T04:27:00.552Z,17.25
2019-06-01T04:29:33.662Z,17.27
2019-06-01T04:32:06.506Z,17.33
2019-06-01T04:34:38.578Z,17.30
2019-06-01T04:37:11.284Z,17.18
2019-06-01T04:39:43.351Z,17.20
2019-06-01T04:42:15.822Z,17.24
2019-06-01T04:44:48.015Z,17.37
2019-06-01T04:47:19.790Z,17.56
2019-06-01T04:49:51.787Z,17.72
2019-06-01T04:52:23.545Z,17.79
2019-06-01T04:54:55.383Z,17.83
2019-06-01T04:57:27.489Z,17.85
2019-06-01T04:59:59.297Z,17.88
2019-06-01T05:02:31.112Z,17.98
2019-06-01T05:05:02.945Z,18.07
2019-06-01T05:07:34.711Z,18.11
2019-06-01T05:10:07.564Z,18.15
2019-06-01T05:12:39.843Z,18.26
2019-06-01T05:15:16.086Z,18.34
2019-06-01T05:17:48.057Z,18.49
2019-06-01T05:20:20.717Z,18.56
2019-06-01T05:22:55.167Z,18.61
2019-06-01T05:25:28.841Z,18.69
2019-06-01T05:28:00.883Z,18.76
2019-06-01T05:30:32.705Z,18.80
2019-06-01T05:33:18.576Z,18.92
2019-06-01T05:35:39.022Z,19.06
2019-06-01T05:38:12.197Z,19.16
2019-06-01T05:40:44.343Z,19.00
2019-06-01T05:43:19.267Z,18.99
2019-06-01T05:45:51.634Z,19.10
2019-06-01T05:48:28.449Z,19.34
2019-06-01T05:50:58.458Z,19.42
2019-06-01T05:53:31.425Z,19.58
2019-06-01T05:56:03.249Z,19.80
2019-06-01T05:58:35.273Z,19.93
2019-06-01T06:01:07.099Z,19.76
2019-06-01T06:03:40.597Z,19.85
2019-06-01T06:06:13.742Z,19.99
2019-06-01T06:08:45.932Z,20.09
2019-06-01T06:11:19.019Z,20.32
2019-06-01T06:13:51.285Z,20.45
2019-06-01T06:16:23.117Z,20.54
2019-06-01T06:18:54.932Z,20.59
2019-06-01T06:21:27.010Z,20.72
2019-06-01T06:23:58.760Z,20.82
2019-06-01T06:26:30.835Z,20.75
2019-06-01T06:29:02.885Z,20.83
2019-06-01T06:31:34.852Z,20.85
2019-06-01T06:34:06.633Z,20.91
2019-06-01T06:36:38.778Z,21.00
2019-06-01T06:39:10.577Z,21.23
2019-06-01T06:41:42.721Z,21.40
2019-06-01T06:44:16.327Z,20.95
2019-06-01T06:46:48.336Z,20.83
2019-06-01T06:49:21.292Z,20.77
2019-06-01T06:51:54.545Z,20.70
2019-06-01T06:54:26.360Z,20.85
2019-06-01T06:56:59.716Z,21.12
2019-06-01T06:59:32.780Z,21.30
2019-06-01T07:02:04.985Z,21.15
2019-06-01T07:04:36.752Z,21.16
2019-06-01T07:07:08.553Z,21.28
2019-06-01T07:09:41.939Z,21.38
2019-06-01T07:12:14.065Z,21.44
2019-06-01T07:14:45.930Z,21.64
2019-06-01T07:17:18.345Z,21.63
2019-06-01T07:19:51.149Z,21.87
2019-06-01T07:22:23.785Z,21.91
2019-06-01T07:24:56.357Z,21.96
2019-06-01T07:27:28.497Z,22.06
2019-06-01T07:30:00.331Z,22.02
2019-06-01T07:32:32.887Z,22.02
2019-06-01T07:35:05.192Z,22.24
2019-06-01T07:37:37.171Z,22.59
2019-06-01T07:40:13.386Z,22.88
2019-06-01T07:42:43.255Z,23.14
2019-06-01T07:45:16.151Z,23.44
2019-06-01T07:47:48.137Z,23.66
2019-06-01T07:50:19.968Z,23.60
2019-06-01T07:52:53.250Z,23.78
2019-06-01T07:55:25.479Z,23.54
2019-06-01T07:57:57.708Z,23.56
2019-06-01T08:00:29.514Z,23.63
2019-06-01T08:03:01.327Z,23.47
2019-06-01T08:05:33.306Z,23.36
2019-06-01T08:08:06.261Z,23.01
2019-06-01T08:10:38.132Z,22.74
2019-06-01T08:13:10.082Z,22.27
2019-06-01T08:15:41.939Z,21.89
2019-06-01T08:18:14.021Z,21.91
2019-06-01T08:20:45.890Z,22.45
2019-06-01T08:23:19.024Z,22.38
2019-06-01T08:25:50.842Z,22.84
2019-06-01T08:28:22.601Z,23.31
2019-06-01T08:30:54.638Z,23.55
2019-06-01T08:33:30.180Z,23.21
2019-06-01T08:36:00.023Z,23.09
2019-06-01T08:38:31.913Z,22.85
2019-06-01T08:41:04.109Z,23.07
2019-06-01T08:43:36.319Z,23.52
2019-06-01T08:46:08.350Z,23.90
2019-06-01T08:48:40.188Z,24.06
2019-06-01T08:51:12.007Z,24.43
2019-06-01T08:53:45.454Z,24.26
2019-06-01T08:56:21.069Z,23.69
2019-06-01T08:58:52.917Z,23.09
2019-06-01T09:01:24.788Z,23.13
2019-06-01T09:03:57.765Z,23.08
2019-06-01T09:06:30.874Z,23.26
2019-06-01T09:09:03.033Z,23.90
2019-06-01T09:11:35.349Z,24.36
2019-06-01T09:14:07.499Z,24.47
2019-06-01T09:16:39.580Z,24.50
2019-06-01T09:19:11.852Z,24.64
2019-06-01T09:21:43.771Z,24.95
2019-06-01T09:24:15.615Z,25.18
2019-06-01T09:26:47.437Z,25.43
2019-06-01T09:29:19.264Z,25.60
2019-06-01T09:31:51.087Z,25.62
2019-06-01T09:34:23.069Z,25.20
2019-06-01T09:36:55.723Z,24.95
2019-06-01T09:39:29.087Z,24.85
2019-06-01T09:42:01.281Z,25.26
2019-06-01T09:44:35.211Z,25.46
2019-06-01T09:47:07.370Z,25.58
2019-06-01T09:49:39.243Z,25.52
2019-06-01T09:52:12.995Z,25.34
2019-06-01T09:54:45.138Z,25.63
2019-06-01T09:57:16.960Z,26.10
2019-06-01T09:59:50.088Z,25.75
2019-06-01T10:02:22.217Z,25.31
2019-06-01T10:04:54.312Z,25.43
2019-06-01T10:07:26.217Z,25.14
2019-06-01T10:09:58.443Z,25.53
2019-06-01T10:12:30.251Z,25.98
2019-06-01T10:15:02.362Z,26.12
2019-06-01T10:17:35.143Z,26.21
2019-06-01T10:20:07.956Z,26.44
2019-06-01T10:22:39.846Z,26.50
2019-06-01T10:25:12.395Z,26.45
2019-06-01T10:27:44.204Z,26.44
2019-06-01T10:30:16.571Z,26.53
2019-06-01T10:32:48.734Z,26.31
2019-06-01T10:35:20.818Z,26.13
2019-06-01T10:37:52.616Z,26.34
2019-06-01T10:40:25.300Z,26.88
2019-06-01T10:42:57.168Z,27.23
2019-06-01T10:45:29.211Z,27.23
2019-06-01T10:48:01.035Z,27.24
2019-06-01T10:50:34.883Z,27.68
2019-06-01T10:53:06.648Z,27.54
2019-06-01T10:55:38.801Z,27.59
2019-06-01T10:58:10.662Z,27.67
2019-06-01T11:00:50.059Z,28.22
2019-06-01T11:03:16.198Z,28.38
2019-06-01T11:05:48.065Z,27.88
2019-06-01T11:08:20.004Z,27.47
2019-06-01T11:10:52.104Z,27.62
2019-06-01T11:13:23.896Z,27.95
2019-06-01T11:15:55.949Z,28.06
2019-06-01T11:18:27.781Z,28.02
2019-06-01T11:20:59.786Z,28.07
2019-06-01T11:23:31.737Z,27.91
2019-06-01T11:26:03.804Z,27.90
2019-06-01T11:28:37.985Z,27.67
2019-06-01T11:31:10.430Z,27.84
2019-06-01T11:33:42.338Z,27.77
2019-06-01T11:36:14.424Z,27.98
2019-06-01T11:38:46.252Z,28.13
2019-06-01T11:41:18.800Z,28.27
2019-06-01T11:43:50.994Z,27.71
2019-06-01T11:46:23.096Z,26.65
2019-06-01T11:48:55.184Z,26.99
2019-06-01T11:51:27.215Z,27.38
2019-06-01T11:53:59.125Z,27.53
2019-06-01T11:56:30.935Z,27.76
2019-06-01T11:59:03.209Z,27.64
2019-06-01T12:01:39.749Z,27.96
2019-06-01T12:04:12.080Z,28.40
2019-06-01T12:06:44.153Z,28.75
2019-06-01T12:09:15.986Z,28.98
2019-06-01T12:11:47.954Z,29.33
2019-06-01T12:14:19.781Z,29.35
2019-06-01T12:16:51.894Z,28.90
2019-06-01T12:19:24.366Z,28.82
2019-06-01T12:21:56.424Z,29.15
2019-06-01T12:24:28.221Z,29.32
2019-06-01T12:27:00.367Z,29.74
2019-06-01T12:29:32.242Z,29.92
2019-06-01T12:32:04.301Z,30.32
2019-06-01T12:34:37.984Z,30.84
2019-06-01T12:37:10.270Z,31.11
2019-06-01T12:39:42.343Z,31.12
2019-06-01T12:42:14.244Z,30.99
2019-06-01T12:44:46.068Z,31.48
2019-06-01T12:47:18.223Z,31.38
2019-06-01T12:49:50.059Z,30.90
2019-06-01T12:52:22.031Z,30.55
2019-06-01T12:54:53.855Z,31.32
2019-06-01T12:57:25.713Z,31.99
2019-06-01T12:59:57.512Z,32.03
2019-06-01T13:02:29.598Z,31.13
2019-06-01T13:05:01.600Z,30.79
2019-06-01T13:07:50.570Z,33.13
2019-06-01T13:10:09.840Z,35.37
2019-06-01T13:12:43.010Z,36.73
2019-06-01T13:15:15.312Z,35.71
2019-06-01T13:17:47.351Z,35.46
2019-06-01T13:20:19.965Z,37.15
2019-06-01T13:22:52.046Z,37.70
2019-06-01T13:25:24.443Z,37.72
2019-06-01T13:27:56.558Z,37.07
2019-06-01T13:30:30.063Z,37.12
2019-06-01T13:33:01.883Z,36.10
2019-06-01T13:35:34.059Z,37.82
2019-06-01T13:38:12.417Z,38.48
2019-06-01T13:40:39.814Z,36.91
2019-06-01T13:43:11.652Z,36.14
2019-06-01T13:45:43.454Z,35.42
2019-06-01T13:48:15.437Z,36.71
2019-06-01T13:50:47.804Z,39.88
2019-06-01T13:53:20.021Z,42.05
2019-06-01T13:55:52.810Z,43.59
2019-06-01T13:58:25.212Z,44.58
2019-06-01T14:00:57.105Z,45.41
2019-06-01T14:03:28.945Z,45.66
2019-06-01T14:06:01.164Z,46.32
2019-06-01T14:08:33.346Z,46.64
2019-06-01T14:11:05.171Z,47.25
2019-06-01T14:13:37.274Z,45.96
2019-06-01T14:16:09.171Z,44.03
2019-06-01T14:18:41.184Z,42.75
2019-06-01T14:21:13.292Z,39.88
2019-06-01T14:23:45.759Z,38.66
2019-06-01T14:26:17.763Z,38.30
2019-06-01T14:28:50.143Z,41.29
2019-06-01T14:31:22.081Z,43.16
2019-06-01T14:33:54.871Z,44.41
2019-06-01T14:36:26.928Z,42.35
2019-06-01T14:38:59.157Z,43.92
2019-06-01T14:41:31.061Z,45.57
2019-06-01T14:44:03.190Z,46.54
2019-06-01T14:46:43.817Z,46.48
2019-06-01T14:49:08.956Z,42.88
2019-06-01T14:51:41.012Z,41.50
2019-06-01T14:54:12.933Z,40.07
2019-06-01T14:56:44.810Z,37.47
2019-06-01T14:59:16.610Z,37.14
2019-06-01T15:01:48.390Z,39.70
2019-06-01T15:04:21.879Z,41.53
2019-06-01T15:06:54.379Z,42.45
2019-06-01T15:09:26.536Z,43.55
2019-06-01T15:11:58.712Z,42.76
2019-06-01T15:14:30.948Z,40.03
2019-06-01T15:17:02.783Z,38.81
2019-06-01T15:19:34.644Z,38.19
2019-06-01T15:22:07.235Z,35.97
2019-06-01T15:24:39.210Z,34.02
2019-06-01T15:27:11.015Z,32.56
2019-06-01T15:29:43.161Z,34.12
2019-06-01T15:32:14.937Z,37.65
2019-06-01T15:34:47.122Z,40.38
2019-06-01T15:37:19.055Z,41.42
2019-06-01T15:39:50.825Z,40.08
2019-06-01T15:42:22.607Z,41.03
2019-06-01T15:44:55.071Z,41.97
2019-06-01T15:47:28.301Z,43.10
2019-06-01T15:50:00.286Z,43.73
2019-06-01T15:52:32.036Z,43.64
2019-06-01T15:55:03.829Z,43.28
2019-06-01T15:57:35.660Z,42.31
2019-06-01T16:00:09.166Z,41.04
2019-06-01T16:02:41.098Z,40.49
2019-06-01T16:05:14.249Z,40.49
2019-06-01T16:07:46.164Z,39.75
2019-06-01T16:10:18.150Z,39.27
2019-06-01T16:12:49.916Z,39.26
2019-06-01T16:15:21.861Z,39.22
2019-06-01T16:17:55.800Z,38.69
2019-06-01T16:20:27.844Z,37.95
2019-06-01T16:23:00.332Z,36.92
2019-06-01T16:25:32.451Z,35.76
2019-06-01T16:28:05.549Z,34.60
2019-06-01T16:30:37.737Z,34.18
2019-06-01T16:33:09.572Z,33.79
2019-06-01T16:35:41.444Z,33.15
2019-06-01T16:38:13.476Z,32.45
2019-06-01T16:40:45.497Z,31.69
2019-06-01T16:43:17.788Z,31.18
2019-06-01T16:45:49.870Z,30.82
2019-06-01T16:48:21.762Z,30.41
2019-06-01T16:50:53.968Z,30.07
2019-06-01T16:53:26.025Z,29.84
2019-06-01T16:55:57.933Z,29.57
2019-06-01T16:58:30.155Z,29.15
2019-06-01T17:01:02.698Z,28.75
2019-06-01T17:03:34.699Z,28.31
2019-06-01T17:06:06.951Z,27.99
2019-06-01T17:08:39.421Z,27.76
2019-06-01T17:11:11.416Z,27.56
2019-06-01T17:13:43.290Z,27.42
2019-06-01T17:16:15.352Z,27.28
2019-06-01T17:18:47.267Z,27.09
2019-06-01T17:21:19.292Z,26.84
2019-06-01T17:23:51.216Z,26.59
2019-06-01T17:26:23.316Z,26.36
2019-06-01T17:28:55.106Z,26.09
2019-06-01T17:31:27.106Z,25.97
2019-06-01T17:34:00.317Z,25.84
2019-06-01T17:36:33.838Z,25.68
2019-06-01T17:39:08.089Z,25.52
2019-06-01T17:41:40.438Z,25.37
2019-06-01T17:44:12.889Z,25.24
2019-06-01T17:46:53.570Z,25.16
2019-06-01T17:49:18.309Z,25.11
2019-06-01T17:51:50.416Z,25.01
2019-06-01T17:54:22.326Z,24.91
2019-06-01T17:56:55.401Z,24.78
2019-06-01T17:59:28.373Z,24.68
2019-06-01T18:02:01.657Z,24.59
2019-06-01T18:04:34.194Z,24.50
2019-06-01T18:07:06.408Z,24.39
2019-06-01T18:09:38.619Z,24.30
2019-06-01T18:12:10.583Z,24.19
2019-06-01T18:14:42.402Z,24.08
2019-06-01T18:17:14.555Z,23.99
2019-06-01T18:19:46.381Z,23.89
2019-06-01T18:22:18.496Z,23.79
2019-06-01T18:24:50.646Z,23.68
2019-06-01T18:27:22.691Z,23.60
2019-06-01T18:29:54.615Z,23.52
2019-06-01T18:32:32.196Z,23.48
2019-06-01T18:35:04.931Z,23.43
2019-06-01T18:37:36.883Z,23.36
2019-06-01T18:40:09.810Z,23.26
2019-06-01T18:42:42.594Z,23.16
2019-06-01T18:45:15.856Z,23.07
2019-06-01T18:47:48.132Z,22.99
2019-06-01T18:50:20.393Z,22.88
2019-06-01T18:52:52.642Z,22.71
2019-06-01T18:55:27.552Z,22.57
2019-06-01T18:58:03.915Z,22.44
2019-06-01T19:00:39.542Z,22.33
2019-06-01T19:03:11.621Z,22.21
2019-06-01T19:05:43.551Z,22.09
2019-06-01T19:08:16.169Z,21.95
2019-06-01T19:10:49.527Z,21.84
2019-06-01T19:13:22.142Z,21.72
2019-06-01T19:15:54.087Z,21.60
2019-06-01T19:18:26.166Z,21.48
2019-06-01T19:20:58.022Z,21.37
2019-06-01T19:23:29.794Z,21.26
2019-06-01T19:26:01.745Z,21.18
2019-06-01T19:28:33.638Z,21.08
2019-06-01T19:31:06.686Z,21.01
2019-06-01T19:33:38.889Z,20.93
2019-06-01T19:36:11.366Z,20.87
2019-06-01T19:38:45.889Z,20.81
2019-06-01T19:41:18.036Z,20.71
2019-06-01T19:43:50.068Z,20.63
2019-06-01T19:46:22.014Z,20.54
2019-06-01T19:48:54.029Z,20.44
2019-06-01T19:51:25.827Z,20.35
2019-06-01T19:53:57.953Z,20.28
2019-06-01T19:56:29.836Z,20.23
2019-06-01T19:59:01.994Z,20.17
2019-06-01T20:01:33.864Z,20.10
2019-06-01T20:04:06.021Z,20.01
2019-06-01T20:06:37.841Z,19.95
2019-06-01T20:09:10.930Z,19.89
2019-06-01T20:11:43.140Z,19.83
2019-06-01T20:14:16.344Z,19.77
2019-06-01T20:16:48.511Z,19.71
2019-06-01T20:19:20.342Z,19.66
2019-06-01T20:21:52.209Z,19.62
2019-06-01T20:24:24.299Z,19.60
2019-06-01T20:26:57.363Z,19.58
2019-06-01T20:29:29.554Z,19.56
2019-06-01T20:32:01.444Z,19.55
2019-06-01T20:34:33.798Z,19.51
2019-06-01T20:37:05.601Z,19.44
2019-06-01T20:39:37.614Z,19.38
2019-06-01T20:42:20.928Z,19.33
2019-06-01T20:44:43.271Z,19.29
2019-06-01T20:47:16.548Z,19.23
2019-06-01T20:49:49.719Z,19.16
2019-06-01T20:52:23.291Z,19.08
2019-06-01T20:54:55.724Z,19.01
2019-06-01T20:57:28.080Z,18.95
2019-06-01T21:00:00.068Z,18.88
2019-06-01T21:02:31.864Z,18.88
2019-06-01T21:05:04.217Z,18.86
2019-06-01T21:07:36.018Z,18.81
2019-06-01T21:10:09.075Z,18.75
2019-06-01T21:12:45.463Z,18.71
2019-06-01T21:15:17.137Z,18.66
2019-06-01T21:17:50.353Z,18.60
2019-06-01T21:20:28.522Z,18.54
2019-06-01T21:22:56.248Z,18.45
2019-06-01T21:25:28.424Z,18.40
2019-06-01T21:28:00.511Z,18.37
2019-06-01T21:30:32.542Z,18.34
2019-06-01T21:33:04.352Z,18.31
2019-06-01T21:35:36.192Z,18.27
2019-06-01T21:38:08.123Z,18.24
2019-06-01T21:40:40.207Z,18.21
2019-06-01T21:43:23.896Z,18.18
2019-06-01T21:45:46.886Z,18.18
2019-06-01T21:48:19.749Z,18.16
2019-06-01T21:50:52.034Z,18.11
2019-06-01T21:53:24.566Z,18.08
2019-06-01T21:55:56.689Z,18.04
2019-06-01T21:58:28.974Z,17.97
2019-06-01T22:01:01.156Z,17.89
2019-06-01T22:03:34.539Z,17.79
2019-06-01T22:06:06.447Z,17.74
2019-06-01T22:08:38.523Z,17.70
2019-06-01T22:11:10.511Z,17.64
2019-06-01T22:13:42.323Z,17.62
2019-06-01T22:16:14.182Z,17.57
2019-06-01T22:18:45.976Z,17.54
2019-06-01T22:21:17.824Z,17.53
2019-06-01T22:23:50.781Z,17.50
2019-06-01T22:26:23.954Z,17.42
2019-06-01T22:28:55.928Z,17.36
2019-06-01T22:31:28.695Z,17.32
2019-06-01T22:34:00.712Z,17.30
2019-06-01T22:36:32.814Z,17.29
2019-06-01T22:39:05.831Z,17.23
2019-06-01T22:41:39.394Z,17.22
2019-06-01T22:44:13.077Z,17.23
2019-06-01T22:46:45.342Z,17.22
2019-06-01T22:49:17.112Z,17.20
2019-06-01T22:51:49.085Z,17.20
2019-06-01T22:54:21.098Z,17.22
2019-06-01T22:56:53.347Z,17.20
2019-06-01T22:59:26.587Z,17.19
2019-06-01T23:01:58.794Z,17.11
2019-06-01T23:04:31.391Z,17.08
2019-06-01T23:07:03.969Z,17.05
2019-06-01T23:09:35.778Z,16.99
2019-06-01T23:12:08.008Z,16.94
2019-06-01T23:14:40.048Z,16.91
2019-06-01T23:17:11.982Z,16.92
2019-06-01T23:19:44.119Z,16.88
2019-06-01T23:22:16.571Z,16.87
2019-06-01T23:24:48.329Z,16.85
2019-06-01T23:27:20.500Z,16.79
2019-06-01T23:29:52.347Z,16.75
2019-06-01T23:32:24.523Z,16.74
2019-06-01T23:34:56.714Z,16.72
2019-06-01T23:37:28.872Z,16.73
2019-06-01T23:40:00.939Z,16.73
2019-06-01T23:42:33.091Z,16.71
2019-06-01T23:45:05.178Z,16.69
2019-06-01T23:47:38.414Z,16.62
2019-06-01T23:50:10.368Z,16.54
2019-06-01T23:52:42.389Z,16.51
2019-06-01T23:55:14.521Z,16.48
2019-06-01T23:57:46.347Z,16.45
